sensor_id;sensor_type;location;lat;lon;timestamp;pressure;altitude;pressure_sealevel;temperature;humidity
66021;BME280;52789;59.980;30.346;2022-10-26T00:00:36;101170.28;;;2.63;100.00
66021;BME280;52789;59.980;30.346;2022-10-26T00:03:03;101160.34;;;2.54;100.00
66021;BME280;52789;59.980;30.346;2022-10-26T00:05:31;101125.56;;;2.24;100.00
66021;BME280;52789;59.980;30.346;2022-10-26T00:07:57;101143.19;;;2.36;100.00
66021;BME280;52789;59.980;30.346;2022-10-26T00:10:22;101159.09;;;2.47;100.00
66021;BME280;52789;59.980;30.346;2022-10-26T00:12:49;101154.88;;;2.44;100.00
66021;BME280;52789;59.980;30.346;2022-10-26T00:15:16;101150.66;;;2.42;100.00
66021;BME280;52789;59.980;30.346;2022-10-26T00:17:42;101149.19;;;2.38;100.00
66021;BME280;52789;59.980;30.346;2022-10-26T00:20:08;101145.59;;;2.39;100.00
66021;BME280;52789;59.980;30.346;2022-10-26T00:22:33;101137.81;;;2.37;100.00
66021;BME280;52789;59.980;30.346;2022-10-26T00:24:59;101125.22;;;2.42;100.00
66021;BME280;52789;59.980;30.346;2022-10-26T00:27:24;101121.63;;;2.43;100.00
66021;BME280;52789;59.980;30.346;2022-10-26T00:29:50;101136.91;;;2.51;100.00
66021;BME280;52789;59.980;30.346;2022-10-26T00:32:15;101122.50;;;2.57;100.00
66021;BME280;52789;59.980;30.346;2022-10-26T00:34:41;101121.78;;;2.67;100.00
66021;BME280;52789;59.980;30.346;2022-10-26T00:37:06;101127.06;;;2.67;100.00
66021;BME280;52789;59.980;30.346;2022-10-26T00:39:32;101114.13;;;2.64;100.00
66021;BME280;52789;59.980;30.346;2022-10-26T00:41:57;101119.47;;;2.63;100.00
66021;BME280;52789;59.980;30.346;2022-10-26T00:47:29;101113.28;;;2.76;100.00
66021;BME280;52789;59.980;30.346;2022-10-26T00:50:01;101116.84;;;2.75;100.00
66021;BME280;52789;59.980;30.346;2022-10-26T00:52:29;101113.38;;;2.75;100.00
66021;BME280;52789;59.980;30.346;2022-10-26T00:54:58;101101.59;;;2.68;100.00
66021;BME280;52789;59.980;30.346;2022-10-26T00:57:25;101111.91;;;2.71;100.00
66021;BME280;52789;59.980;30.346;2022-10-26T00:59:53;101109.28;;;2.71;100.00
66021;BME280;52789;59.980;30.346;2022-10-26T01:02:22;101111.16;;;2.82;100.00
66021;BME280;52789;59.980;30.346;2022-10-26T01:04:49;101105.31;;;2.91;100.00
66021;BME280;52789;59.980;30.346;2022-10-26T01:07:15;101102.13;;;2.86;100.00
66021;BME280;52789;59.980;30.346;2022-10-26T01:09:41;101103.06;;;2.85;100.00
66021;BME280;52789;59.980;30.346;2022-10-26T01:12:06;101101.59;;;2.80;100.00
66021;BME280;52789;59.980;30.346;2022-10-26T01:14:35;101096.13;;;2.84;100.00
66021;BME280;52789;59.980;30.346;2022-10-26T01:17:16;101091.59;;;2.86;100.00
66021;BME280;52789;59.980;30.346;2022-10-26T01:22:51;101095.50;;;2.93;100.00
66021;BME280;52789;59.980;30.346;2022-10-26T01:28:10;101088.84;;;2.87;100.00
66021;BME280;52789;59.980;30.346;2022-10-26T01:30:43;101077.09;;;2.80;100.00
66021;BME280;52789;59.980;30.346;2022-10-26T01:35:49;101082.75;;;2.87;100.00
66021;BME280;52789;59.980;30.346;2022-10-26T01:41:02;101087.28;;;2.85;100.00
66021;BME280;52789;59.980;30.346;2022-10-26T01:43:35;101070.34;;;2.89;100.00
66021;BME280;52789;59.980;30.346;2022-10-26T01:46:05;101081.19;;;2.97;100.00
66021;BME280;52789;59.980;30.346;2022-10-26T01:48:33;101042.16;;;2.78;100.00
66021;BME280;52789;59.980;30.346;2022-10-26T01:51:00;101069.41;;;3.02;100.00
66021;BME280;52789;59.980;30.346;2022-10-26T01:53:26;101073.72;;;3.03;100.00
66021;BME280;52789;59.980;30.346;2022-10-26T01:55:55;101073.59;;;3.05;100.00
66021;BME280;52789;59.980;30.346;2022-10-26T01:58:58;101072.44;;;3.09;100.00
66021;BME280;52789;59.980;30.346;2022-10-26T02:04:40;101067.31;;;2.95;100.00
66021;BME280;52789;59.980;30.346;2022-10-26T02:07:21;101062.78;;;2.97;100.00
66021;BME280;52789;59.980;30.346;2022-10-26T02:10:10;101065.09;;;3.01;100.00
66021;BME280;52789;59.980;30.346;2022-10-26T02:15:20;101069.81;;;3.09;100.00
66021;BME280;52789;59.980;30.346;2022-10-26T02:18:01;101061.47;;;3.15;100.00
66021;BME280;52789;59.980;30.346;2022-10-26T02:20:39;101063.59;;;3.10;100.00
66021;BME280;52789;59.980;30.346;2022-10-26T02:23:06;101060.44;;;3.05;100.00
66021;BME280;52789;59.980;30.346;2022-10-26T02:25:36;101054.47;;;3.03;100.00
66021;BME280;52789;59.980;30.346;2022-10-26T02:28:07;101040.91;;;2.96;100.00
66021;BME280;52789;59.980;30.346;2022-10-26T02:30:35;101061.47;;;3.15;100.00
66021;BME280;52789;59.980;30.346;2022-10-26T02:33:04;101056.88;;;3.19;100.00
66021;BME280;52789;59.980;30.346;2022-10-26T02:35:34;101052.53;;;3.18;100.00
66021;BME280;52789;59.980;30.346;2022-10-26T02:38:05;101048.44;;;3.26;100.00
66021;BME280;52789;59.980;30.346;2022-10-26T02:40:33;101051.56;;;3.31;100.00
66021;BME280;52789;59.980;30.346;2022-10-26T02:43:02;101053.25;;;3.32;100.00
66021;BME280;52789;59.980;30.346;2022-10-26T02:45:33;101062.72;;;3.35;100.00
66021;BME280;52789;59.980;30.346;2022-10-26T02:47:59;101051.78;;;3.28;100.00
66021;BME280;52789;59.980;30.346;2022-10-26T02:50:31;101047.25;;;3.18;100.00
66021;BME280;52789;59.980;30.346;2022-10-26T02:53:16;101048.22;;;3.17;100.00
66021;BME280;52789;59.980;30.346;2022-10-26T02:55:47;101048.03;;;3.20;100.00
66021;BME280;52789;59.980;30.346;2022-10-26T02:58:18;101038.34;;;3.20;100.00
66021;BME280;52789;59.980;30.346;2022-10-26T03:00:45;101043.38;;;3.23;100.00
66021;BME280;52789;59.980;30.346;2022-10-26T03:03:11;101031.38;;;3.19;100.00
66021;BME280;52789;59.980;30.346;2022-10-26T03:05:40;101031.16;;;3.22;100.00
66021;BME280;52789;59.980;30.346;2022-10-26T03:08:07;101037.22;;;3.35;100.00
66021;BME280;52789;59.980;30.346;2022-10-26T03:10:39;101049.22;;;3.39;100.00
66021;BME280;52789;59.980;30.346;2022-10-26T03:13:05;101041.53;;;3.36;100.00
66021;BME280;52789;59.980;30.346;2022-10-26T03:15:33;101002.97;;;3.11;100.00
66021;BME280;52789;59.980;30.346;2022-10-26T03:17:59;101036.28;;;3.36;100.00
66021;BME280;52789;59.980;30.346;2022-10-26T03:20:24;101029.84;;;3.40;100.00
66021;BME280;52789;59.980;30.346;2022-10-26T03:22:50;101023.56;;;3.30;100.00
66021;BME280;52789;59.980;30.346;2022-10-26T03:25:15;101032.19;;;3.32;100.00
66021;BME280;52789;59.980;30.346;2022-10-26T03:27:41;101033.38;;;3.28;100.00
66021;BME280;52789;59.980;30.346;2022-10-26T03:30:07;101025.91;;;3.22;100.00
66021;BME280;52789;59.980;30.346;2022-10-26T03:32:33;101030.72;;;3.28;100.00
66021;BME280;52789;59.980;30.346;2022-10-26T03:34:58;101022.94;;;3.27;100.00
66021;BME280;52789;59.980;30.346;2022-10-26T03:37:24;101027.97;;;3.30;100.00
66021;BME280;52789;59.980;30.346;2022-10-26T03:39:50;101023.56;;;3.30;100.00
66021;BME280;52789;59.980;30.346;2022-10-26T03:42:15;101026.19;;;3.30;100.00
66021;BME280;52789;59.980;30.346;2022-10-26T03:44:41;101025.47;;;3.28;100.00
66021;BME280;52789;59.980;30.346;2022-10-26T03:47:07;101024.28;;;3.32;100.00
66021;BME280;52789;59.980;30.346;2022-10-26T03:49:32;101023.13;;;3.36;100.00
66021;BME280;52789;59.980;30.346;2022-10-26T03:51:58;101025.06;;;3.46;100.00
66021;BME280;52789;59.980;30.346;2022-10-26T03:54:23;101017.81;;;3.49;100.00
66021;BME280;52789;59.980;30.346;2022-10-26T03:56:49;101014.25;;;3.50;100.00
66021;BME280;52789;59.980;30.346;2022-10-26T03:59:15;101011.72;;;3.49;100.00
66021;BME280;52789;59.980;30.346;2022-10-26T04:01:40;101007.41;;;3.48;100.00
66021;BME280;52789;59.980;30.346;2022-10-26T04:04:06;101007.41;;;3.48;100.00
66021;BME280;52789;59.980;30.346;2022-10-26T04:06:31;101017.16;;;3.58;100.00
66021;BME280;52789;59.980;30.346;2022-10-26T04:08:57;101011.31;;;3.66;100.00
66021;BME280;52789;59.980;30.346;2022-10-26T04:11:29;101006.16;;;3.64;100.00
66021;BME280;52789;59.980;30.346;2022-10-26T04:13:55;101013.94;;;3.66;100.00
66021;BME280;52789;59.980;30.346;2022-10-26T04:16:24;101006.28;;;3.63;100.00
66021;BME280;52789;59.980;30.346;2022-10-26T04:18:49;101005.78;;;3.58;100.00
66021;BME280;52789;59.980;30.346;2022-10-26T04:21:15;101008.41;;;3.58;100.00
66021;BME280;52789;59.980;30.346;2022-10-26T04:23:40;101004.09;;;3.57;100.00
66021;BME280;52789;59.980;30.346;2022-10-26T04:26:06;101014.63;;;3.57;100.00
66021;BME280;52789;59.980;30.346;2022-10-26T04:28:31;100999.78;;;3.56;100.00
66021;BME280;52789;59.980;30.346;2022-10-26T04:30:57;101004.31;;;3.54;100.00
66021;BME280;52789;59.980;30.346;2022-10-26T04:33:22;100994.75;;;3.53;100.00
66021;BME280;52789;59.980;30.346;2022-10-26T04:35:48;101009.88;;;3.62;100.00
66021;BME280;52789;59.980;30.346;2022-10-26T04:38:13;100994.28;;;3.59;100.00
66021;BME280;52789;59.980;30.346;2022-10-26T04:40:39;101000.91;;;3.64;100.00
66021;BME280;52789;59.980;30.346;2022-10-26T04:43:05;100987.00;;;3.62;100.00
66021;BME280;52789;59.980;30.346;2022-10-26T04:45:30;101004.63;;;3.73;100.00
66021;BME280;52789;59.980;30.346;2022-10-26T04:48:07;100986.66;;;3.67;100.00
66021;BME280;52789;59.980;30.346;2022-10-26T04:50:34;100997.38;;;3.77;100.00
66021;BME280;52789;59.980;30.346;2022-10-26T04:53:00;101006.31;;;3.74;100.00
66021;BME280;52789;59.980;30.346;2022-10-26T04:55:25;101001.06;;;3.74;100.00
66021;BME280;52789;59.980;30.346;2022-10-26T04:57:51;101001.56;;;3.79;100.00
66021;BME280;52789;59.980;30.346;2022-10-26T05:00:16;100991.75;;;3.81;100.00
66021;BME280;52789;59.980;30.346;2022-10-26T05:02:42;100997.06;;;3.92;100.00
66021;BME280;52789;59.980;30.346;2022-10-26T05:05:14;101006.41;;;3.96;100.00
66021;BME280;52789;59.980;30.346;2022-10-26T05:07:40;101001.53;;;4.03;100.00
66021;BME280;52789;59.980;30.346;2022-10-26T05:10:06;100999.25;;;3.98;100.00
66021;BME280;52789;59.980;30.346;2022-10-26T05:12:32;100998.75;;;3.93;100.00
66021;BME280;52789;59.980;30.346;2022-10-26T05:14:57;100994.44;;;3.92;100.00
66021;BME280;52789;59.980;30.346;2022-10-26T05:17:26;100998.84;;;3.92;100.00
66021;BME280;52789;59.980;30.346;2022-10-26T05:19:52;100990.59;;;3.85;100.00
66021;BME280;52789;59.980;30.346;2022-10-26T05:22:23;100991.75;;;3.81;100.00
66021;BME280;52789;59.980;30.346;2022-10-26T05:24:49;100986.50;;;3.81;100.00
66021;BME280;52789;59.980;30.346;2022-10-26T05:27:18;100989.41;;;3.89;100.00
66021;BME280;52789;59.980;30.346;2022-10-26T05:29:43;100994.19;;;3.95;100.00
66021;BME280;52789;59.980;30.346;2022-10-26T05:32:11;100989.41;;;3.89;100.00
66021;BME280;52789;59.980;30.346;2022-10-26T05:34:39;100993.25;;;3.96;100.00
66021;BME280;52789;59.980;30.346;2022-10-26T05:37:05;100989.53;;;3.99;100.00
66021;BME280;52789;59.980;30.346;2022-10-26T05:39:30;100997.09;;;4.03;100.00
66021;BME280;52789;59.980;30.346;2022-10-26T05:41:56;100992.28;;;3.97;100.00
66021;BME280;52789;59.980;30.346;2022-10-26T05:44:21;100989.41;;;4.00;100.00
66021;BME280;52789;59.980;30.346;2022-10-26T05:46:47;100988.59;;;4.00;100.00
66021;BME280;52789;59.980;30.346;2022-10-26T05:49:13;100992.06;;;4.00;100.00
66021;BME280;52789;59.980;30.346;2022-10-26T05:51:40;100982.13;;;4.04;100.00
66021;BME280;52789;59.980;30.346;2022-10-26T05:54:05;100986.34;;;4.07;100.00
66021;BME280;52789;59.980;30.346;2022-10-26T05:56:39;100982.75;;;4.08;100.00
66021;BME280;52789;59.980;30.346;2022-10-26T05:59:14;100985.16;;;4.11;100.00
66021;BME280;52789;59.980;30.346;2022-10-26T06:06:53;100988.78;;;4.21;100.00
66021;BME280;52789;59.980;30.346;2022-10-26T06:09:20;100992.38;;;4.31;100.00
66021;BME280;52789;59.980;30.346;2022-10-26T06:11:46;100990.59;;;4.31;100.00
66021;BME280;52789;59.980;30.346;2022-10-26T06:14:11;100979.91;;;4.33;100.00
66021;BME280;52789;59.980;30.346;2022-10-26T06:22:16;100979.72;;;4.36;100.00
66021;BME280;52789;59.980;30.346;2022-10-26T06:30:23;100997.22;;;4.48;100.00
66021;BME280;52789;59.980;30.346;2022-10-26T06:32:49;100990.75;;;4.52;100.00
66021;BME280;52789;59.980;30.346;2022-10-26T06:38:13;100989.53;;;4.56;100.00
66021;BME280;52789;59.980;30.346;2022-10-26T06:40:42;100992.44;;;4.64;100.00
66021;BME280;52789;59.980;30.346;2022-10-26T06:43:18;100982.94;;;4.62;100.00
66021;BME280;52789;59.980;30.346;2022-10-26T06:45:51;100996.06;;;4.63;100.00
66021;BME280;52789;59.980;30.346;2022-10-26T06:48:24;100990.03;;;4.61;100.00
66021;BME280;52789;59.980;30.346;2022-10-26T06:50:52;100982.09;;;4.61;100.00
66021;BME280;52789;59.980;30.346;2022-10-26T06:53:34;100988.13;;;4.75;100.00
66021;BME280;52789;59.980;30.346;2022-10-26T06:56:02;100973.75;;;4.79;100.00
66021;BME280;52789;59.980;30.346;2022-10-26T06:58:32;100964.84;;;4.80;100.00
66021;BME280;52789;59.980;30.346;2022-10-26T07:00:59;100965.22;;;4.75;100.00
66021;BME280;52789;59.980;30.346;2022-10-26T07:03:30;100967.25;;;4.72;100.00
66021;BME280;52789;59.980;30.346;2022-10-26T07:05:56;100974.22;;;4.73;100.00
66021;BME280;52789;59.980;30.346;2022-10-26T07:08:47;100976.38;;;4.79;100.00
66021;BME280;52789;59.980;30.346;2022-10-26T07:11:12;100981.16;;;4.85;100.00
66021;BME280;52789;59.980;30.346;2022-10-26T07:13:38;100981.63;;;4.90;100.00
66021;BME280;52789;59.980;30.346;2022-10-26T07:16:04;100982.97;;;4.95;100.00
66021;BME280;52789;59.980;30.346;2022-10-26T07:18:29;100968.94;;;4.95;100.00
66021;BME280;52789;59.980;30.346;2022-10-26T07:20:57;100985.38;;;4.98;100.00
66021;BME280;52789;59.980;30.346;2022-10-26T07:23:23;100978.28;;;4.99;100.00
66021;BME280;52789;59.980;30.346;2022-10-26T07:25:48;100982.13;;;5.06;100.00
66021;BME280;52789;59.980;30.346;2022-10-26T07:28:14;100974.69;;;5.00;100.00
66021;BME280;52789;59.980;30.346;2022-10-26T07:30:40;100985.34;;;5.10;100.00
66021;BME280;52789;59.980;30.346;2022-10-26T07:33:11;100990.84;;;5.18;100.00
66021;BME280;52789;59.980;30.346;2022-10-26T07:35:37;100984.97;;;5.14;100.00
66021;BME280;52789;59.980;30.346;2022-10-26T07:38:03;100971.81;;;5.03;100.00
66021;BME280;52789;59.980;30.346;2022-10-26T07:40:29;100996.38;;;5.15;100.00
66021;BME280;52789;59.980;30.346;2022-10-26T07:42:56;100993.63;;;5.16;100.00
66021;BME280;52789;59.980;30.346;2022-10-26T07:45:22;100992.53;;;5.19;100.00
66021;BME280;52789;59.980;30.346;2022-10-26T07:47:48;100985.34;;;5.21;100.00
66021;BME280;52789;59.980;30.346;2022-10-26T07:50:14;100992.41;;;5.32;100.00
66021;BME280;52789;59.980;30.346;2022-10-26T07:52:40;100980.16;;;5.31;100.00
66021;BME280;52789;59.980;30.346;2022-10-26T07:55:07;100979.31;;;5.30;100.00
66021;BME280;52789;59.980;30.346;2022-10-26T07:57:33;100993.38;;;5.31;100.00
66021;BME280;52789;59.980;30.346;2022-10-26T07:59:59;100983.53;;;5.33;100.00
66021;BME280;52789;59.980;30.346;2022-10-26T08:02:24;100985.19;;;5.34;100.00
66021;BME280;52789;59.980;30.346;2022-10-26T08:04:51;100982.81;;;5.31;100.00
66021;BME280;52789;59.980;30.346;2022-10-26T08:07:17;100983.78;;;5.29;100.00
66021;BME280;52789;59.980;30.346;2022-10-26T08:09:45;100993.25;;;5.32;100.00
66021;BME280;52789;59.980;30.346;2022-10-26T08:12:10;100981.72;;;5.33;100.00
66021;BME280;52789;59.980;30.346;2022-10-26T08:14:37;100987.47;;;5.38;100.00
66021;BME280;52789;59.980;30.346;2022-10-26T08:17:03;100995.84;;;5.43;100.00
66021;BME280;52789;59.980;30.346;2022-10-26T08:19:28;100993.09;;;5.45;100.00
66021;BME280;52789;59.980;30.346;2022-10-26T08:21:54;100992.63;;;5.51;100.00
66021;BME280;52789;59.980;30.346;2022-10-26T08:24:19;100988.25;;;5.61;100.00
66021;BME280;52789;59.980;30.346;2022-10-26T08:26:45;100949.59;;;5.49;100.00
66021;BME280;52789;59.980;30.346;2022-10-26T08:29:10;100988.66;;;5.77;100.00
66021;BME280;52789;59.980;30.346;2022-10-26T08:31:36;100998.16;;;5.80;100.00
66021;BME280;52789;59.980;30.346;2022-10-26T08:34:01;100979.03;;;5.76;100.00
66021;BME280;52789;59.980;30.346;2022-10-26T08:36:28;100996.09;;;5.83;100.00
66021;BME280;52789;59.980;30.346;2022-10-26T08:38:54;100989.59;;;5.87;100.00
66021;BME280;52789;59.980;30.346;2022-10-26T08:41:36;100993.81;;;5.90;100.00
66021;BME280;52789;59.980;30.346;2022-10-26T08:44:28;100992.38;;;5.86;100.00
66021;BME280;52789;59.980;30.346;2022-10-26T08:46:57;100999.94;;;5.90;100.00
66021;BME280;52789;59.980;30.346;2022-10-26T08:49:24;100998.84;;;5.93;100.00
66021;BME280;52789;59.980;30.346;2022-10-26T08:51:54;100992.47;;;5.96;100.00
66021;BME280;52789;59.980;30.346;2022-10-26T08:54:33;100990.84;;;6.04;100.00
66021;BME280;52789;59.980;30.346;2022-10-26T08:57:03;100964.63;;;5.92;100.00
66021;BME280;52789;59.980;30.346;2022-10-26T09:00:11;101009.38;;;6.25;100.00
66021;BME280;52789;59.980;30.346;2022-10-26T09:02:39;101007.44;;;6.27;100.00
66021;BME280;52789;59.980;30.346;2022-10-26T09:05:14;100999.25;;;6.30;100.00
66021;BME280;52789;59.980;30.346;2022-10-26T09:08:10;100996.88;;;6.27;100.00
66021;BME280;52789;59.980;30.346;2022-10-26T09:11:11;100998.16;;;6.33;100.00
66021;BME280;52789;59.980;30.346;2022-10-26T09:16:39;100991.31;;;6.30;100.00
66021;BME280;52789;59.980;30.346;2022-10-26T09:24:38;100991.19;;;6.52;100.00
66021;BME280;52789;59.980;30.346;2022-10-26T09:29:37;100988.97;;;6.58;100.00
66021;BME280;52789;59.980;30.346;2022-10-26T09:32:17;100987.28;;;6.57;100.00
66021;BME280;52789;59.980;30.346;2022-10-26T09:34:52;100991.69;;;6.67;100.00
66021;BME280;52789;59.980;30.346;2022-10-26T09:37:24;100992.97;;;6.73;100.00
66021;BME280;52789;59.980;30.346;2022-10-26T09:42:42;100999.66;;;6.77;100.00
66021;BME280;52789;59.980;30.346;2022-10-26T09:45:18;100999.81;;;6.75;100.00
66021;BME280;52789;59.980;30.346;2022-10-26T09:47:50;101002.44;;;6.75;100.00
66021;BME280;52789;59.980;30.346;2022-10-26T09:52:45;100990.84;;;6.67;100.00
66021;BME280;52789;59.980;30.346;2022-10-26T09:55:11;100989.53;;;6.61;100.00
66021;BME280;52789;59.980;30.346;2022-10-26T09:57:40;100995.81;;;6.60;100.00
66021;BME280;52789;59.980;30.346;2022-10-26T10:00:15;100992.59;;;6.57;100.00
66021;BME280;52789;59.980;30.346;2022-10-26T10:02:51;100999.03;;;6.64;100.00
66021;BME280;52789;59.980;30.346;2022-10-26T10:08:09;101003.28;;;6.76;100.00
66021;BME280;52789;59.980;30.346;2022-10-26T10:10:35;100998.69;;;6.78;100.00
66021;BME280;52789;59.980;30.346;2022-10-26T10:13:15;101000.25;;;6.80;100.00
66021;BME280;52789;59.980;30.346;2022-10-26T10:15:50;101001.47;;;6.76;100.00
66021;BME280;52789;59.980;30.346;2022-10-26T10:18:19;101002.03;;;6.80;100.00
66021;BME280;52789;59.980;30.346;2022-10-26T10:20:51;100994.13;;;6.90;100.00
66021;BME280;52789;59.980;30.346;2022-10-26T10:23:27;100991.97;;;6.95;100.00
66021;BME280;52789;59.980;30.346;2022-10-26T10:26:06;100995.59;;;7.03;100.00
66021;BME280;52789;59.980;30.346;2022-10-26T10:28:35;100999.94;;;7.04;100.00
66021;BME280;52789;59.980;30.346;2022-10-26T10:31:19;100997.84;;;7.08;100.00
66021;BME280;52789;59.980;30.346;2022-10-26T10:33:45;100999.38;;;7.10;100.00
66021;BME280;52789;59.980;30.346;2022-10-26T10:40:06;100998.34;;;7.32;100.00
66021;BME280;52789;59.980;30.346;2022-10-26T10:42:36;100999.88;;;7.35;100.00
66021;BME280;52789;59.980;30.346;2022-10-26T10:45:03;101003.09;;;7.38;100.00
66021;BME280;52789;59.980;30.346;2022-10-26T10:47:32;101007.00;;;7.44;100.00
66021;BME280;52789;59.980;30.346;2022-10-26T10:50:02;101011.75;;;7.50;100.00
66021;BME280;52789;59.980;30.346;2022-10-26T10:52:33;101003.78;;;7.50;100.00
66021;BME280;52789;59.980;30.346;2022-10-26T11:00:13;101006.31;;;7.52;100.00
66021;BME280;52789;59.980;30.346;2022-10-26T11:05:48;101012.91;;;7.57;100.00
66021;BME280;52789;59.980;30.346;2022-10-26T11:10:58;101008.53;;;7.46;100.00
66021;BME280;52789;59.980;30.346;2022-10-26T11:13:38;101002.41;;;7.46;100.00
66021;BME280;52789;59.980;30.346;2022-10-26T11:16:38;101016.06;;;7.51;100.00
66021;BME280;52789;59.980;30.346;2022-10-26T11:21:43;100995.28;;;7.46;100.00
66021;BME280;52789;59.980;30.346;2022-10-26T11:24:30;101014.16;;;7.63;100.00
66021;BME280;52789;59.980;30.346;2022-10-26T11:27:09;101008.28;;;7.59;100.00
66021;BME280;52789;59.980;30.346;2022-10-26T11:30:05;101017.50;;;7.65;100.00
66021;BME280;52789;59.980;30.346;2022-10-26T11:35:17;101006.63;;;7.58;100.00
66021;BME280;52789;59.980;30.346;2022-10-26T11:37:58;101013.88;;;7.56;100.00
66021;BME280;52789;59.980;30.346;2022-10-26T11:43:26;101017.38;;;7.66;100.00
66021;BME280;52789;59.980;30.346;2022-10-26T11:46:26;101019.47;;;7.72;100.00
66021;BME280;52789;59.980;30.346;2022-10-26T11:49:17;101012.75;;;7.68;100.00
66021;BME280;52789;59.980;30.346;2022-10-26T11:52:01;101013.03;;;7.65;100.00
66021;BME280;52789;59.980;30.346;2022-10-26T11:54:34;101020.28;;;7.63;100.00
66021;BME280;52789;59.980;30.346;2022-10-26T11:57:02;101010.38;;;7.65;100.00
66021;BME280;52789;59.980;30.346;2022-10-26T11:59:31;101021.69;;;7.67;100.00
66021;BME280;52789;59.980;30.346;2022-10-26T12:02:09;101020.03;;;7.66;100.00
66021;BME280;52789;59.980;30.346;2022-10-26T12:04:41;101002.72;;;7.62;100.00
66021;BME280;52789;59.980;30.346;2022-10-26T12:07:15;101021.28;;;7.72;100.00
66021;BME280;52789;59.980;30.346;2022-10-26T12:09:44;101016.81;;;7.72;100.00
66021;BME280;52789;59.980;30.346;2022-10-26T12:14:59;101020.31;;;7.83;100.00
66021;BME280;52789;59.980;30.346;2022-10-26T12:22:35;101025.91;;;7.89;100.00
66021;BME280;52789;59.980;30.346;2022-10-26T12:25:28;101016.84;;;7.92;100.00
66021;BME280;52789;59.980;30.346;2022-10-26T12:27:54;101010.84;;;7.90;100.00
66021;BME280;52789;59.980;30.346;2022-10-26T12:35:35;101016.97;;;8.00;100.00
66021;BME280;52789;59.980;30.346;2022-10-26T12:43:35;101012.78;;;8.07;100.00
66021;BME280;52789;59.980;30.346;2022-10-26T12:57:00;101019.63;;;8.00;100.00
66021;BME280;52789;59.980;30.346;2022-10-26T13:08:01;101031.09;;;8.10;100.00
66021;BME280;52789;59.980;30.346;2022-10-26T13:10:28;101015.56;;;8.05;100.00
66021;BME280;52789;59.980;30.346;2022-10-26T13:12:55;101019.50;;;8.11;100.00
66021;BME280;52789;59.980;30.346;2022-10-26T13:18:14;101031.22;;;8.18;100.00
66021;BME280;52789;59.980;30.346;2022-10-26T13:21:06;101023.94;;;8.20;100.00
66021;BME280;52789;59.980;30.346;2022-10-26T13:23:36;101030.78;;;8.23;100.00
66021;BME280;52789;59.980;30.346;2022-10-26T13:26:11;101034.69;;;8.28;100.00
66021;BME280;52789;59.980;30.346;2022-10-26T13:31:04;101032.88;;;8.29;100.00
66021;BME280;52789;59.980;30.346;2022-10-26T13:33:37;101032.72;;;8.30;100.00
66021;BME280;52789;59.980;30.346;2022-10-26T13:36:50;101045.47;;;8.36;100.00
66021;BME280;52789;59.980;30.346;2022-10-26T13:39:19;101031.34;;;8.26;100.00
66021;BME280;52789;59.980;30.346;2022-10-26T13:41:47;101042.22;;;8.33;100.00
66021;BME280;52789;59.980;30.346;2022-10-26T13:44:24;101041.38;;;8.32;100.00
66021;BME280;52789;59.980;30.346;2022-10-26T13:46:55;101033.84;;;8.28;100.00
66021;BME280;52789;59.980;30.346;2022-10-26T13:49:27;101044.19;;;8.31;100.00
66021;BME280;52789;59.980;30.346;2022-10-26T13:51:55;101051.31;;;8.30;100.00
66021;BME280;52789;59.980;30.346;2022-10-26T13:57:14;101058.03;;;8.34;100.00
66021;BME280;52789;59.980;30.346;2022-10-26T13:59:44;101044.47;;;8.28;100.00
66021;BME280;52789;59.980;30.346;2022-10-26T14:02:25;101050.31;;;8.31;100.00
66021;BME280;52789;59.980;30.346;2022-10-26T14:05:02;101029.94;;;8.22;100.00
66021;BME280;52789;59.980;30.346;2022-10-26T14:07:53;101050.75;;;8.36;100.00
66021;BME280;52789;59.980;30.346;2022-10-26T14:10:40;101050.63;;;8.38;100.00
66021;BME280;52789;59.980;30.346;2022-10-26T14:13:15;101053.41;;;8.36;100.00
66021;BME280;52789;59.980;30.346;2022-10-26T14:15:50;101048.94;;;8.37;100.00
66021;BME280;52789;59.980;30.346;2022-10-26T14:18:28;101041.56;;;8.41;100.00
66021;BME280;52789;59.980;30.346;2022-10-26T14:21:04;101049.53;;;8.41;100.00
66021;BME280;52789;59.980;30.346;2022-10-26T14:23:44;101039.59;;;8.43;100.00
66021;BME280;52789;59.980;30.346;2022-10-26T14:26:29;101046.31;;;8.47;100.00
66021;BME280;52789;59.980;30.346;2022-10-26T14:29:00;101053.28;;;8.48;100.00
66021;BME280;52789;59.980;30.346;2022-10-26T14:31:27;101035.44;;;8.40;100.00
66021;BME280;52789;59.980;30.346;2022-10-26T14:33:55;101033.47;;;8.42;100.00
66021;BME280;52789;59.980;30.346;2022-10-26T14:36:31;101049.38;;;8.52;100.00
66021;BME280;52789;59.980;30.346;2022-10-26T14:39:02;101045.03;;;8.51;100.00
66021;BME280;52789;59.980;30.346;2022-10-26T14:41:29;101053.69;;;8.53;100.00
66021;BME280;52789;59.980;30.346;2022-10-26T14:43:57;101044.06;;;8.52;100.00
66021;BME280;52789;59.980;30.346;2022-10-26T14:46:26;101055.09;;;8.57;100.00
66021;BME280;52789;59.980;30.346;2022-10-26T14:48:55;101057.72;;;8.57;100.00
66021;BME280;52789;59.980;30.346;2022-10-26T14:51:29;101059.13;;;8.61;100.00
66021;BME280;52789;59.980;30.346;2022-10-26T14:53:59;101048.50;;;8.61;100.00
66021;BME280;52789;59.980;30.346;2022-10-26T14:59:17;101056.75;;;8.67;100.00
66021;BME280;52789;59.980;30.346;2022-10-26T15:02:16;101060.78;;;8.72;100.00
66021;BME280;52789;59.980;30.346;2022-10-26T15:04:58;101058.13;;;8.72;100.00
66021;BME280;52789;59.980;30.346;2022-10-26T15:07:33;101059.66;;;8.74;100.00